Time,TemperatureF,DewpointF,PressureIn,WindDirection,WindDirectionDegrees,WindSpeedMPH,WindSpeedGustMPH,Humidity,HourlyPrecipIn,Conditions,Clouds,dailyrainin,SoftwareType,DateUTC
2013-09-10 00:02:00,50.4,38.3,23.42,ESE,115,0.0,0.0,63,0.00,,---,0.00,VWS V14.00,2013-09-10 07:02:00,
2013-09-10 00:07:00,50.4,38.3,23.42,ESE,115,0.0,0.0,63,0.00,,---,0.00,VWS V14.00,2013-09-10 07:07:00,
2013-09-10 00:12:00,50.4,38.3,23.42,ESE,115,0.0,0.0,63,0.00,,---,0.00,VWS V14.00,2013-09-10 07:12:00,
2013-09-10 00:17:00,50.4,38.3,23.42,ESE,115,0.0,0.0,63,0.00,,---,0.00,VWS V14.00,2013-09-10 07:17:00,
2013-09-10 00:22:00,50.2,38.1,23.42,ESE,115,0.0,0.0,63,0.00,,---,0.00,VWS V14.00,2013-09-10 07:22:00,
2013-09-10 00:27:00,50.2,38.1,23.42,ESE,115,0.0,0.0,63,0.00,,---,0.00,VWS V14.00,2013-09-10 07:27:00,
2013-09-10 00:32:00,50.2,38.1,23.42,ESE,115,0.0,0.0,63,0.00,,---,0.00,VWS V14.00,2013-09-10 07:32:00,
2013-09-10 00:37:00,49.8,37.8,23.42,ESE,115,0.0,0.0,63,0.00,,---,0.00,VWS V14.00,2013-09-10 07:37:00,
2013-09-10 00:42:00,49.6,37.6,23.42,ESE,115,0.0,0.0,63,0.00,,---,0.00,VWS V14.00,2013-09-10 07:42:00,
2013-09-10 00:47:00,49.6,37.6,23.45,ESE,115,0.0,0.0,63,0.00,,---,0.00,VWS V14.00,2013-09-10 07:47:00,
2013-09-10 00:52:00,49.5,37.4,23.45,ESE,115,0.0,0.0,63,0.00,,---,0.00,VWS V14.00,2013-09-10 07:52:00,
2013-09-10 00:57:00,49.3,37.2,23.45,ESE,115,0.0,0.0,63,0.00,,---,0.00,VWS V14.00,2013-09-10 07:57:00,
2013-09-10 01:02:00,49.3,37.2,23.45,ESE,115,0.0,0.0,63,0.00,,---,0.00,VWS V14.00,2013-09-10 08:02:00,
2013-09-10 01:07:00,49.3,37.2,23.45,ESE,115,0.0,0.0,63,0.00,,---,0.00,VWS V14.00,2013-09-10 08:07:00,
2013-09-10 01:12:00,49.5,37.4,23.45,ESE,115,0.0,0.0,63,0.00,,---,0.00,VWS V14.00,2013-09-10 08:12:00,
2013-09-10 01:17:00,49.5,37.4,23.45,ESE,115,0.0,0.0,63,0.00,,---,0.00,VWS V14.00,2013-09-10 08:17:00,
2013-09-10 01:22:00,49.6,37.6,23.45,ESE,115,0.0,0.0,63,0.00,,---,0.00,VWS V14.00,2013-09-10 08:22:00,
2013-09-10 01:28:00,49.6,37.6,23.45,ESE,115,0.0,0.0,63,0.00,,---,0.00,VWS V14.00,2013-09-10 08:28:00,
2013-09-10 01:33:00,49.8,37.8,23.45,ESE,115,0.0,0.0,63,0.00,,---,0.00,VWS V14.00,2013-09-10 08:33:00,
2013-09-10 01:38:00,49.6,37.6,23.45,ESE,115,0.0,0.0,63,0.00,,---,0.00,VWS V14.00,2013-09-10 08:38:00,
2013-09-10 01:43:00,49.6,37.6,23.45,ESE,115,0.0,0.0,63,0.00,,---,0.00,VWS V14.00,2013-09-10 08:43:00,
2013-09-10 01:48:00,49.6,37.6,23.45,ESE,115,0.0,0.0,63,0.00,,---,0.00,VWS V14.00,2013-09-10 08:48:00,
2013-09-10 01:53:00,50.0,37.9,23.45,ESE,115,0.0,0.0,63,0.00,,---,0.00,VWS V14.00,2013-09-10 08:53:00,
2013-09-10 01:58:00,50.0,37.9,23.45,ESE,115,0.0,0.0,63,0.00,,---,0.00,VWS V14.00,2013-09-10 08:58:00,
2013-09-10 02:03:00,50.0,37.9,23.42,ESE,115,0.0,0.0,63,0.00,,---,0.00,VWS V14.00,2013-09-10 09:03:00,
2013-09-10 02:08:00,50.0,37.9,23.42,ESE,115,0.0,0.0,63,0.00,,---,0.00,VWS V14.00,2013-09-10 09:08:00,
2013-09-10 02:13:00,50.2,38.1,23.42,ESE,115,0.0,0.0,63,0.00,,---,0.00,VWS V14.00,2013-09-10 09:13:00,
2013-09-10 02:18:00,50.2,38.1,23.42,ESE,115,0.0,0.0,63,0.00,,---,0.00,VWS V14.00,2013-09-10 09:18:00,
2013-09-10 02:23:00,50.2,38.1,23.42,ESE,115,0.0,0.0,63,0.00,,---,0.00,VWS V14.00,2013-09-10 09:23:00,
2013-09-10 02:28:00,50.2,38.1,23.42,ESE,115,0.0,0.0,63,0.00,,---,0.00,VWS V14.00,2013-09-10 09:28:00,
2013-09-10 02:33:00,50.0,37.9,23.42,ESE,115,0.0,0.0,63,0.00,,---,0.00,VWS V14.00,2013-09-10 09:33:00,
2013-09-10 02:38:00,50.0,37.9,23.42,ESE,115,0.0,0.0,63,0.00,,---,0.00,VWS V14.00,2013-09-10 09:38:00,
2013-09-10 02:43:00,50.0,37.9,23.42,ESE,115,0.0,0.0,63,0.00,,---,0.00,VWS V14.00,2013-09-10 09:43:00,
2013-09-10 02:48:00,50.0,37.9,23.42,ESE,115,0.0,0.0,63,0.00,,---,0.00,VWS V14.00,2013-09-10 09:48:00,
2013-09-10 02:53:00,50.0,37.9,23.42,ESE,115,0.0,0.0,63,0.00,,---,0.00,VWS V14.00,2013-09-10 09:53:00,
2013-09-10 02:58:00,49.8,38.2,23.42,ESE,115,0.0,0.0,64,0.00,,---,0.00,VWS V14.00,2013-09-10 09:58:00,
2013-09-10 03:03:00,49.8,38.2,23.42,ESE,115,0.0,0.0,64,0.00,,---,0.00,VWS V14.00,2013-09-10 10:03:00,
2013-09-10 03:08:00,49.6,38.0,23.42,ESE,115,0.0,0.0,64,0.00,,---,0.00,VWS V14.00,2013-09-10 10:08:00,
2013-09-10 03:13:00,49.6,38.0,23.42,ESE,115,0.0,0.0,64,0.00,,---,0.00,VWS V14.00,2013-09-10 10:13:00,
2013-09-10 03:18:00,49.6,38.0,23.42,ESE,115,0.0,0.0,64,0.00,,---,0.00,VWS V14.00,2013-09-10 10:18:00,
2013-09-10 03:23:00,49.6,38.0,23.42,ESE,115,0.0,0.0,64,0.00,,---,0.00,VWS V14.00,2013-09-10 10:23:00,
2013-09-10 03:28:00,49.6,38.0,23.42,ESE,115,0.0,0.0,64,0.00,,---,0.00,VWS V14.00,2013-09-10 10:28:00,
2013-09-10 03:33:00,49.6,38.0,23.42,ESE,115,0.0,0.0,64,0.00,,---,0.00,VWS V14.00,2013-09-10 10:33:00,
2013-09-10 03:38:00,49.6,38.0,23.42,ESE,115,0.0,0.0,64,0.00,,---,0.00,VWS V14.00,2013-09-10 10:38:00,
2013-09-10 03:43:00,49.8,38.2,23.42,ESE,115,0.0,0.0,64,0.00,,---,0.00,VWS V14.00,2013-09-10 10:43:00,
2013-09-10 03:48:00,50.0,38.3,23.42,ESE,115,0.0,0.0,64,0.00,,---,0.00,VWS V14.00,2013-09-10 10:48:00,
2013-09-10 03:53:00,50.2,38.5,23.42,ESE,115,0.0,0.0,64,0.00,,---,0.00,VWS V14.00,2013-09-10 10:53:00,
2013-09-10 03:59:00,50.2,38.5,23.42,NNW,348,0.0,0.0,64,0.00,,---,0.00,VWS V14.00,2013-09-10 10:59:00,
2013-09-10 04:04:00,50.4,38.7,23.42,NNW,348,0.0,0.0,64,0.00,,---,0.00,VWS V14.00,2013-09-10 11:04:00,
2013-09-10 04:09:00,50.5,38.8,23.42,NNW,348,0.0,0.0,64,0.00,,---,0.00,VWS V14.00,2013-09-10 11:09:00,
2013-09-10 04:14:00,50.7,39.0,23.42,NNW,348,0.0,0.0,64,0.00,,---,0.00,VWS V14.00,2013-09-10 11:14:00,
2013-09-10 04:19:00,50.9,39.2,23.42,NNW,348,0.0,0.0,64,0.00,,---,0.00,VWS V14.00,2013-09-10 11:19:00,
2013-09-10 04:24:00,50.9,39.2,23.42,NNW,348,0.0,0.0,64,0.00,,---,0.00,VWS V14.00,2013-09-10 11:24:00,
2013-09-10 04:29:00,51.1,39.3,23.42,NNW,348,0.0,0.0,64,0.00,,---,0.00,VWS V14.00,2013-09-10 11:29:00,
2013-09-10 04:34:00,51.4,39.7,23.42,NW,322,0.0,0.0,64,0.00,,---,0.00,VWS V14.00,2013-09-10 11:34:00,
2013-09-10 04:39:00,51.4,39.7,23.42,NW,322,0.0,0.0,64,0.00,,---,0.00,VWS V14.00,2013-09-10 11:39:00,
2013-09-10 04:44:00,51.6,39.8,23.42,NW,322,0.0,0.0,64,0.00,,---,0.00,VWS V14.00,2013-09-10 11:44:00,
2013-09-10 04:49:00,51.6,39.8,23.42,NW,322,2.2,2.2,64,0.00,,---,0.00,VWS V14.00,2013-09-10 11:49:00,
2013-09-10 04:54:00,51.8,40.0,23.42,NW,322,0.0,0.0,64,0.00,,---,0.00,VWS V14.00,2013-09-10 11:54:00,
2013-09-10 04:59:00,51.8,40.0,23.42,NW,322,0.0,0.0,64,0.00,,---,0.00,VWS V14.00,2013-09-10 11:59:00,
2013-09-10 05:04:00,52.0,40.2,23.42,WNW,285,0.0,0.0,64,0.00,,---,0.00,VWS V14.00,2013-09-10 12:04:00,
2013-09-10 05:09:00,52.0,40.2,23.42,WNW,285,0.0,0.0,64,0.00,,---,0.00,VWS V14.00,2013-09-10 12:09:00,
2013-09-10 05:14:00,52.0,40.2,23.42,WNW,285,0.0,0.0,64,0.00,,---,0.00,VWS V14.00,2013-09-10 12:14:00,
2013-09-10 05:19:00,52.0,40.2,23.42,WNW,285,0.0,0.0,64,0.00,,---,0.00,VWS V14.00,2013-09-10 12:19:00,
2013-09-10 05:24:00,52.0,40.2,23.42,WNW,285,0.0,0.0,64,0.00,,---,0.00,VWS V14.00,2013-09-10 12:24:00,
2013-09-10 05:29:00,51.8,40.0,23.42,WNW,285,0.0,0.0,64,0.00,,---,0.00,VWS V14.00,2013-09-10 12:29:00,
2013-09-10 05:34:00,51.6,39.8,23.42,WNW,285,0.0,0.0,64,0.00,,---,0.00,VWS V14.00,2013-09-10 12:34:00,
2013-09-10 05:39:00,51.6,39.8,23.42,WNW,285,0.0,0.0,64,0.00,,---,0.00,VWS V14.00,2013-09-10 12:39:00,
2013-09-10 05:44:00,51.4,39.7,23.42,WNW,285,0.0,0.0,64,0.00,,---,0.00,VWS V14.00,2013-09-10 12:44:00,
2013-09-10 05:49:00,51.3,39.5,23.42,WNW,285,0.0,0.0,64,0.00,,---,0.00,VWS V14.00,2013-09-10 12:49:00,
2013-09-10 05:54:00,51.1,39.3,23.42,WNW,285,0.0,0.0,64,0.00,,---,0.00,VWS V14.00,2013-09-10 12:54:00,
2013-09-10 06:00:00,50.7,39.0,23.42,WNW,285,0.0,0.0,64,0.00,,---,0.00,VWS V14.00,2013-09-10 13:00:00,
2013-09-10 06:05:00,50.5,38.8,23.45,WNW,285,0.0,0.0,64,0.00,,---,0.00,VWS V14.00,2013-09-10 13:05:00,
2013-09-10 06:10:00,50.4,38.7,23.45,WNW,285,0.0,0.0,64,0.00,,---,0.00,VWS V14.00,2013-09-10 13:10:00,
2013-09-10 06:15:00,50.2,38.5,23.45,WNW,285,0.0,0.0,64,0.00,,---,0.00,VWS V14.00,2013-09-10 13:15:00,
2013-09-10 06:20:00,50.2,38.5,23.45,WNW,285,0.0,0.0,64,0.00,,---,0.00,VWS V14.00,2013-09-10 13:20:00,
2013-09-10 06:25:00,50.4,38.7,23.45,WNW,285,0.0,0.0,64,0.00,,---,0.00,VWS V14.00,2013-09-10 13:25:00,
2013-09-10 06:30:00,50.4,38.7,23.45,WNW,285,0.0,0.0,64,0.00,,---,0.00,VWS V14.00,2013-09-10 13:30:00,
2013-09-10 06:35:00,50.4,38.7,23.45,WNW,285,0.0,0.0,64,0.00,,---,0.00,VWS V14.00,2013-09-10 13:35:00,
2013-09-10 06:40:00,50.5,38.8,23.45,WNW,285,0.0,0.0,64,0.00,,---,0.00,VWS V14.00,2013-09-10 13:40:00,
2013-09-10 06:45:00,50.5,38.8,23.45,WNW,285,0.0,0.0,64,0.00,,---,0.00,VWS V14.00,2013-09-10 13:45:00,
2013-09-10 06:50:00,50.7,39.0,23.45,WNW,285,0.0,0.0,64,0.00,,---,0.00,VWS V14.00,2013-09-10 13:50:00,
2013-09-10 06:55:00,50.9,39.2,23.45,WNW,285,0.0,0.0,64,0.00,,---,0.00,VWS V14.00,2013-09-10 13:55:00,
2013-09-10 07:00:00,51.1,39.3,23.45,WNW,285,0.0,0.0,64,0.00,,---,0.00,VWS V14.00,2013-09-10 14:00:00,
2013-09-10 07:05:00,51.3,39.9,23.45,WNW,285,0.0,0.0,65,0.00,,---,0.00,VWS V14.00,2013-09-10 14:05:00,
2013-09-10 07:10:00,51.3,39.9,23.45,WNW,285,0.0,0.0,65,0.00,,---,0.00,VWS V14.00,2013-09-10 14:10:00,
2013-09-10 07:15:00,51.4,40.1,23.45,WNW,285,0.0,0.0,65,0.00,,---,0.00,VWS V14.00,2013-09-10 14:15:00,
2013-09-10 07:20:00,51.6,40.2,23.45,WNW,285,0.0,0.0,65,0.00,,---,0.00,VWS V14.00,2013-09-10 14:20:00,
2013-09-10 07:26:00,51.8,40.0,23.45,WNW,285,0.0,0.0,64,0.00,,---,0.00,VWS V14.00,2013-09-10 14:26:00,
2013-09-10 07:31:00,51.8,40.0,23.45,WNW,285,0.0,0.0,64,0.00,,---,0.00,VWS V14.00,2013-09-10 14:31:00,
2013-09-10 07:36:00,52.0,40.6,23.45,WNW,285,0.0,0.0,65,0.00,,---,0.00,VWS V14.00,2013-09-10 14:36:00,
2013-09-10 07:41:00,52.2,40.8,23.45,WNW,285,0.0,0.0,65,0.00,,---,0.00,VWS V14.00,2013-09-10 14:41:00,
2013-09-10 07:46:00,52.3,40.9,23.45,WNW,285,0.0,0.0,65,0.00,,---,0.00,VWS V14.00,2013-09-10 14:46:00,
2013-09-10 07:51:00,52.5,41.1,23.45,WNW,285,0.0,0.0,65,0.00,,---,0.00,VWS V14.00,2013-09-10 14:51:00,
2013-09-10 07:56:00,52.7,41.3,23.45,WNW,285,0.0,0.0,65,0.00,,---,0.00,VWS V14.00,2013-09-10 14:56:00,
2013-09-10 08:01:00,53.1,41.6,23.45,WNW,285,0.0,0.0,65,0.00,,---,0.00,VWS V14.00,2013-09-10 15:01:00,
2013-09-10 08:06:00,53.4,42.0,23.45,WNW,285,0.0,0.0,65,0.00,,---,0.00,VWS V14.00,2013-09-10 15:06:00,
2013-09-10 08:11:00,53.8,42.3,23.45,WNW,285,0.0,0.0,65,0.00,,---,0.00,VWS V14.00,2013-09-10 15:11:00,
2013-09-10 08:16:00,54.3,42.8,23.45,WNW,285,0.0,0.0,65,0.00,,---,0.00,VWS V14.00,2013-09-10 15:16:00,
2013-09-10 08:21:00,54.7,43.2,23.45,WNW,285,0.0,0.0,65,0.00,,---,0.00,VWS V14.00,2013-09-10 15:21:00,
2013-09-10 08:26:00,55.0,43.5,23.45,WNW,285,0.0,0.0,65,0.00,,---,0.00,VWS V14.00,2013-09-10 15:26:00,
2013-09-10 08:31:00,55.2,43.7,23.45,WNW,285,0.0,0.0,65,0.00,,---,0.00,VWS V14.00,2013-09-10 15:31:00,
2013-09-10 08:36:00,55.4,43.8,23.48,WNW,285,0.0,0.0,65,0.00,,---,0.00,VWS V14.00,2013-09-10 15:36:00,
2013-09-10 08:41:00,55.6,44.0,23.48,WNW,285,0.0,0.0,65,0.00,,---,0.00,VWS V14.00,2013-09-10 15:41:00,
2013-09-10 08:46:00,55.8,44.2,23.48,WNW,285,0.0,0.0,65,0.00,,---,0.00,VWS V14.00,2013-09-10 15:46:00,
2013-09-10 08:51:00,56.1,44.5,23.48,ENE,74,0.0,0.0,65,0.00,,---,0.00,VWS V14.00,2013-09-10 15:51:00,
2013-09-10 08:57:00,56.3,44.7,23.48,ENE,74,0.0,0.0,65,0.00,,---,0.00,VWS V14.00,2013-09-10 15:57:00,
2013-09-10 09:02:00,56.5,44.9,23.48,ENE,74,0.0,0.0,65,0.00,,---,0.00,VWS V14.00,2013-09-10 16:02:00,
2013-09-10 09:07:00,56.7,45.0,23.48,ENE,74,0.0,0.0,65,0.00,,---,0.00,VWS V14.00,2013-09-10 16:07:00,
2013-09-10 09:12:00,56.8,45.2,23.48,ENE,74,0.0,0.0,65,0.00,,---,0.00,VWS V14.00,2013-09-10 16:12:00,
2013-09-10 09:17:00,56.8,45.2,23.48,ENE,70,0.0,0.0,65,0.00,,---,0.00,VWS V14.00,2013-09-10 16:17:00,
2013-09-10 09:22:00,56.8,45.2,23.48,North,357,0.0,0.0,65,0.00,,---,0.00,VWS V14.00,2013-09-10 16:22:00,
2013-09-10 09:27:00,56.8,45.2,23.48,North,357,0.0,0.0,65,0.00,,---,0.00,VWS V14.00,2013-09-10 16:27:00,
2013-09-10 09:32:00,57.0,45.4,23.48,North,357,0.0,0.0,65,0.00,,---,0.00,VWS V14.00,2013-09-10 16:32:00,
2013-09-10 09:37:00,57.0,45.4,23.48,North,357,0.0,0.0,65,0.00,,---,0.00,VWS V14.00,2013-09-10 16:37:00,
2013-09-10 09:42:00,57.2,45.6,23.48,North,357,0.0,0.0,65,0.00,,---,0.00,VWS V14.00,2013-09-10 16:42:00,
2013-09-10 09:47:00,57.2,45.6,23.48,North,357,0.0,0.0,65,0.00,,---,0.00,VWS V14.00,2013-09-10 16:47:00,
2013-09-10 09:52:00,57.4,45.7,23.48,North,357,0.0,0.0,65,0.00,,---,0.00,VWS V14.00,2013-09-10 16:52:00,
2013-09-10 09:57:00,57.6,45.9,23.48,North,357,0.0,0.0,65,0.00,,---,0.00,VWS V14.00,2013-09-10 16:57:00,
2013-09-10 10:02:00,57.6,45.9,23.48,North,357,0.0,0.0,65,0.00,,---,0.00,VWS V14.00,2013-09-10 17:02:00,
2013-09-10 10:07:00,58.1,46.4,23.48,North,357,0.0,0.0,65,0.00,,---,0.00,VWS V14.00,2013-09-10 17:07:00,
2013-09-10 10:12:00,58.1,46.4,23.48,North,357,0.0,0.0,65,0.00,,---,0.00,VWS V14.00,2013-09-10 17:12:00,
2013-09-10 10:17:00,58.3,46.6,23.48,North,357,0.0,0.0,65,0.00,,---,0.00,VWS V14.00,2013-09-10 17:17:00,
2013-09-10 10:22:00,58.5,46.8,23.48,North,357,0.0,0.0,65,0.00,,---,0.00,VWS V14.00,2013-09-10 17:22:00,
2013-09-10 10:27:00,58.5,46.8,23.48,North,357,0.0,0.0,65,0.00,,---,0.00,VWS V14.00,2013-09-10 17:27:00,
2013-09-10 10:32:00,58.5,46.8,23.48,North,357,0.0,0.0,65,0.00,,---,0.00,VWS V14.00,2013-09-10 17:32:00,
2013-09-10 10:37:00,58.5,46.8,23.48,North,357,0.0,0.0,65,0.00,,---,0.00,VWS V14.00,2013-09-10 17:37:00,
2013-09-10 10:42:00,58.5,46.8,23.48,North,357,0.0,0.0,65,0.00,,---,0.00,VWS V14.00,2013-09-10 17:42:00,
2013-09-10 10:47:00,58.3,46.6,23.48,North,357,0.0,0.0,65,0.00,,---,0.00,VWS V14.00,2013-09-10 17:47:00,
2013-09-10 10:53:00,58.3,46.6,23.48,North,357,0.0,0.0,65,0.00,,---,0.00,VWS V14.00,2013-09-10 17:53:00,
2013-09-10 10:58:00,58.3,46.6,23.48,North,357,0.0,0.0,65,0.00,,---,0.00,VWS V14.00,2013-09-10 17:58:00,
2013-09-10 11:03:00,58.5,46.8,23.48,WNW,291,2.7,2.7,65,0.00,,---,0.00,VWS V14.00,2013-09-10 18:03:00,
2013-09-10 11:08:00,58.5,46.8,23.48,WNW,287,0.0,0.0,65,0.00,,---,0.00,VWS V14.00,2013-09-10 18:08:00,
2013-09-10 11:13:00,58.8,47.1,23.48,WNW,287,0.0,0.0,65,0.00,,---,0.00,VWS V14.00,2013-09-10 18:13:00,
2013-09-10 11:18:00,59.2,47.4,23.45,WNW,283,4.0,4.0,65,0.00,,---,0.00,VWS V14.00,2013-09-10 18:18:00,
2013-09-10 11:23:00,59.2,47.4,23.45,WNW,283,0.0,0.0,65,0.00,,---,0.00,VWS V14.00,2013-09-10 18:23:00,
2013-09-10 11:28:00,59.2,47.4,23.45,WNW,283,0.0,0.0,65,0.00,,---,0.00,VWS V14.00,2013-09-10 18:28:00,
2013-09-10 11:33:00,59.0,46.8,23.45,WNW,283,0.0,0.0,64,0.00,,---,0.00,VWS V14.00,2013-09-10 18:33:00,
2013-09-10 11:38:00,58.8,47.1,23.45,WNW,283,0.0,0.0,65,0.00,,---,0.00,VWS V14.00,2013-09-10 18:38:00,
2013-09-10 11:43:00,58.8,47.1,23.45,WNW,283,0.0,0.0,65,0.00,,---,0.00,VWS V14.00,2013-09-10 18:43:00,
2013-09-10 11:48:00,58.8,47.1,23.45,WNW,283,0.0,0.0,65,0.00,,---,0.00,VWS V14.00,2013-09-10 18:48:00,
2013-09-10 11:53:00,58.6,46.5,23.45,WNW,283,0.0,0.0,64,0.00,,---,0.00,VWS V14.00,2013-09-10 18:53:00,
2013-09-10 11:58:00,58.5,46.3,23.45,WNW,283,0.0,0.0,64,0.04,,---,0.04,VWS V14.00,2013-09-10 18:58:00,
2013-09-10 12:03:00,58.3,46.2,23.45,WNW,283,0.0,0.0,64,0.04,,---,0.04,VWS V14.00,2013-09-10 19:03:00,
2013-09-10 12:08:00,58.1,46.0,23.45,WNW,283,0.0,0.0,64,0.04,,---,0.04,VWS V14.00,2013-09-10 19:08:00,
2013-09-10 12:13:00,58.3,46.2,23.45,WNW,283,0.0,0.0,64,0.04,,---,0.04,VWS V14.00,2013-09-10 19:13:00,
2013-09-10 12:18:00,58.6,46.9,23.45,NW,317,0.0,0.0,65,0.04,,---,0.04,VWS V14.00,2013-09-10 19:18:00,
2013-09-10 12:23:00,59.7,48.0,23.45,West,277,0.0,2.7,65,0.04,,---,0.04,VWS V14.00,2013-09-10 19:23:00,
2013-09-10 12:28:00,61.3,49.5,23.45,West,281,2.7,4.0,65,0.04,,---,0.04,VWS V14.00,2013-09-10 19:28:00,
2013-09-10 12:33:00,62.4,50.5,23.45,SSW,210,2.2,3.6,65,0.04,,---,0.04,VWS V14.00,2013-09-10 19:33:00,
2013-09-10 12:38:00,63.5,51.5,23.45,South,182,0.0,2.7,65,0.04,,---,0.04,VWS V14.00,2013-09-10 19:38:00,
2013-09-10 12:43:00,63.5,51.5,23.45,SW,218,0.0,0.0,65,0.04,,---,0.04,VWS V14.00,2013-09-10 19:43:00,
2013-09-10 12:49:00,63.7,51.7,23.45,SW,215,0.0,0.0,65,0.04,,---,0.04,VWS V14.00,2013-09-10 19:49:00,
2013-09-10 12:54:00,63.5,50.7,23.45,SSW,194,0.0,3.6,63,0.04,,---,0.04,VWS V14.00,2013-09-10 19:54:00,
2013-09-10 12:59:00,63.5,50.3,23.45,South,189,0.0,2.2,62,0.00,,---,0.04,VWS V14.00,2013-09-10 19:59:00,
2013-09-10 13:04:00,63.3,49.2,23.45,SSE,152,3.6,4.9,60,0.00,,---,0.04,VWS V14.00,2013-09-10 20:04:00,
2013-09-10 13:09:00,63.1,48.1,23.45,NE,43,0.0,3.1,58,0.00,,---,0.04,VWS V14.00,2013-09-10 20:09:00,
2013-09-10 13:14:00,63.1,48.1,23.45,NNW,329,0.0,2.7,58,0.00,,---,0.04,VWS V14.00,2013-09-10 20:14:00,
2013-09-10 13:19:00,63.1,47.2,23.45,SW,214,2.7,2.7,56,0.00,,---,0.04,VWS V14.00,2013-09-10 20:19:00,
2013-09-10 13:24:00,63.0,46.1,23.45,NW,307,2.7,5.8,54,0.00,,---,0.04,VWS V14.00,2013-09-10 20:24:00,
2013-09-10 13:29:00,62.6,44.2,23.45,South,188,0.0,3.6,51,0.00,,---,0.04,VWS V14.00,2013-09-10 20:29:00,
2013-09-10 13:34:00,61.9,42.5,23.45,SSW,211,3.1,3.1,49,0.00,,---,0.04,VWS V14.00,2013-09-10 20:34:00,
2013-09-10 13:39:00,61.3,41.5,23.45,SSE,151,2.2,2.7,48,0.00,,---,0.04,VWS V14.00,2013-09-10 20:39:00,
2013-09-10 13:44:00,60.8,41.0,23.45,NW,313,0.0,0.0,48,0.00,,---,0.04,VWS V14.00,2013-09-10 20:44:00,
2013-09-10 13:49:00,60.4,40.7,23.45,SSE,147,2.2,3.6,48,0.00,,---,0.04,VWS V14.00,2013-09-10 20:49:00,
2013-09-10 13:54:00,59.9,40.2,23.45,SSE,147,0.0,0.0,48,0.00,,---,0.04,VWS V14.00,2013-09-10 20:54:00,
2013-09-10 13:59:00,59.5,39.3,23.45,SSW,195,3.1,3.1,47,0.00,,---,0.04,VWS V14.00,2013-09-10 20:59:00,
2013-09-10 14:05:00,59.2,38.4,23.45,SSW,209,2.7,2.7,46,0.00,,---,0.04,VWS V14.00,2013-09-10 21:05:00,
2013-09-10 14:10:00,59.2,38.4,23.45,SSW,209,0.0,0.0,46,0.00,,---,0.04,VWS V14.00,2013-09-10 21:10:00,
2013-09-10 14:15:00,59.5,39.3,23.45,SSW,211,0.0,3.6,47,0.00,,---,0.04,VWS V14.00,2013-09-10 21:15:00,
2013-09-10 14:20:00,59.9,39.6,23.45,SSW,193,4.0,4.0,47,0.00,,---,0.04,VWS V14.00,2013-09-10 21:20:00,
2013-09-10 14:25:00,60.3,39.4,23.45,West,275,3.6,3.6,46,0.00,,---,0.04,VWS V14.00,2013-09-10 21:25:00,
2013-09-10 14:30:00,60.3,39.4,23.45,SW,229,0.0,2.7,46,0.00,,---,0.04,VWS V14.00,2013-09-10 21:30:00,
2013-09-10 14:35:00,60.6,39.2,23.45,West,274,2.2,4.0,45,0.00,,---,0.04,VWS V14.00,2013-09-10 21:35:00,
2013-09-10 14:40:00,61.0,39.5,23.45,SSE,166,3.6,3.6,45,0.00,,---,0.04,VWS V14.00,2013-09-10 21:40:00,
2013-09-10 14:45:00,61.3,39.3,23.45,WNW,287,0.0,2.7,44,0.00,,---,0.04,VWS V14.00,2013-09-10 21:45:00,
2013-09-10 14:50:00,61.5,39.4,23.45,West,277,3.1,3.1,44,0.00,,---,0.04,VWS V14.00,2013-09-10 21:50:00,
2013-09-10 14:55:00,61.7,38.4,23.45,NW,317,4.0,4.0,42,0.00,,---,0.04,VWS V14.00,2013-09-10 21:55:00,
2013-09-10 15:00:00,61.5,37.6,23.45,WSW,241,2.7,2.7,41,0.00,,---,0.04,VWS V14.00,2013-09-10 22:00:00,
2013-09-10 15:05:00,61.5,37.0,23.45,WNW,292,0.0,0.0,40,0.00,,---,0.04,VWS V14.00,2013-09-10 22:05:00,
2013-09-10 15:10:00,61.3,36.2,23.45,NNW,328,0.0,0.0,39,0.00,,---,0.04,VWS V14.00,2013-09-10 22:10:00,
2013-09-10 15:15:00,61.2,35.4,23.45,WNW,296,0.0,0.0,38,0.00,,---,0.04,VWS V14.00,2013-09-10 22:15:00,
2013-09-10 15:20:00,61.2,35.4,23.45,WNW,296,0.0,0.0,38,0.00,,---,0.04,VWS V14.00,2013-09-10 22:20:00,
2013-09-10 15:25:00,61.2,34.7,23.45,SW,214,0.0,0.0,37,0.00,,---,0.04,VWS V14.00,2013-09-10 22:25:00,
2013-09-10 15:30:00,61.0,34.5,23.45,SW,214,0.0,0.0,37,0.00,,---,0.04,VWS V14.00,2013-09-10 22:30:00,
2013-09-10 15:36:00,60.8,33.7,23.45,SW,214,0.0,0.0,36,0.00,,---,0.04,VWS V14.00,2013-09-10 22:36:00,
2013-09-10 15:41:00,60.8,33.7,23.45,NW,306,0.0,0.0,36,0.00,,---,0.04,VWS V14.00,2013-09-10 22:41:00,
2013-09-10 15:46:00,61.0,33.9,23.45,WNW,301,0.0,5.4,36,0.00,,---,0.04,VWS V14.00,2013-09-10 22:46:00,
2013-09-10 15:51:00,61.3,34.2,23.45,SSW,192,0.0,2.7,36,0.00,,---,0.04,VWS V14.00,2013-09-10 22:51:00,
2013-09-10 15:56:00,61.5,34.3,23.45,WNW,282,0.0,0.0,36,0.00,,---,0.04,VWS V14.00,2013-09-10 22:56:00,
2013-09-10 16:01:00,61.5,34.3,23.45,West,269,2.2,2.7,36,0.00,,---,0.04,VWS V14.00,2013-09-10 23:01:00,
2013-09-10 16:06:00,61.3,34.2,23.45,WSW,238,0.0,2.7,36,0.00,,---,0.04,VWS V14.00,2013-09-10 23:06:00,
2013-09-10 16:11:00,61.0,33.2,23.45,West,277,2.2,4.0,35,0.00,,---,0.04,VWS V14.00,2013-09-10 23:11:00,
2013-09-10 16:16:00,60.8,33.0,23.45,West,269,0.0,4.0,35,0.00,,---,0.04,VWS V14.00,2013-09-10 23:16:00,
2013-09-10 16:21:00,60.6,33.5,23.45,SW,216,2.7,3.1,36,0.00,,---,0.04,VWS V14.00,2013-09-10 23:21:00,
2013-09-10 16:26:00,60.3,33.2,23.45,SSW,213,0.0,0.0,36,0.00,,---,0.04,VWS V14.00,2013-09-10 23:26:00,
2013-09-10 16:31:00,59.7,32.7,23.45,SSW,193,0.0,0.0,36,0.00,,---,0.04,VWS V14.00,2013-09-10 23:31:00,
2013-09-10 16:36:00,59.4,32.4,23.45,SSW,207,0.0,0.0,36,0.00,,---,0.04,VWS V14.00,2013-09-10 23:36:00,
2013-09-10 16:41:00,59.2,32.3,23.45,WNW,286,0.0,0.0,36,0.00,,---,0.04,VWS V14.00,2013-09-10 23:41:00,
2013-09-10 16:46:00,58.8,32.0,23.45,WNW,285,2.2,2.7,36,0.00,,---,0.04,VWS V14.00,2013-09-10 23:46:00,
2013-09-10 16:51:00,58.6,31.8,23.45,WNW,285,0.0,0.0,36,0.04,,---,0.08,VWS V14.00,2013-09-10 23:51:00,
2013-09-10 16:56:00,58.3,32.2,23.45,WNW,286,0.0,0.0,37,0.04,,---,0.08,VWS V14.00,2013-09-10 23:56:00,
2013-09-10 17:01:00,58.1,32.0,23.45,WNW,286,0.0,0.0,37,0.04,,---,0.08,VWS V14.00,2013-09-11 00:01:00,
2013-09-10 17:06:00,57.9,31.8,23.45,WNW,286,0.0,0.0,37,0.04,,---,0.08,VWS V14.00,2013-09-11 00:06:00,
2013-09-10 17:11:00,57.7,31.7,23.45,WNW,286,0.0,0.0,37,0.04,,---,0.08,VWS V14.00,2013-09-11 00:11:00,
2013-09-10 17:16:00,57.7,32.3,23.45,SW,226,0.0,0.0,38,0.08,,---,0.12,VWS V14.00,2013-09-11 00:16:00,
2013-09-10 17:21:00,57.6,32.2,23.45,SW,226,0.0,0.0,38,0.08,,---,0.12,VWS V14.00,2013-09-11 00:21:00,
2013-09-10 17:26:00,57.6,32.2,23.45,NW,314,0.0,0.0,38,0.08,,---,0.12,VWS V14.00,2013-09-11 00:26:00,
2013-09-10 17:31:00,57.4,32.0,23.45,WSW,242,0.0,0.0,38,0.08,,---,0.12,VWS V14.00,2013-09-11 00:31:00,
2013-09-10 17:37:00,57.2,32.5,23.45,WSW,242,0.0,0.0,39,0.08,,---,0.12,VWS V14.00,2013-09-11 00:37:00,
2013-09-10 17:42:00,57.2,32.5,23.45,WSW,242,0.0,0.0,39,0.08,,---,0.12,VWS V14.00,2013-09-11 00:42:00,
2013-09-10 17:47:00,57.2,32.5,23.45,WSW,242,0.0,0.0,39,0.08,,---,0.12,VWS V14.00,2013-09-11 00:47:00,
2013-09-10 17:52:00,57.0,33.0,23.45,WSW,242,0.0,0.0,40,0.04,,---,0.12,VWS V14.00,2013-09-11 00:52:00,
2013-09-10 17:57:00,57.0,33.0,23.45,WSW,242,0.0,0.0,40,0.04,,---,0.12,VWS V14.00,2013-09-11 00:57:00,
2013-09-10 18:02:00,56.8,32.8,23.45,WSW,242,0.0,0.0,40,0.08,,---,0.16,VWS V14.00,2013-09-11 01:02:00,
2013-09-10 18:07:00,56.8,33.4,23.45,WSW,242,0.0,0.0,41,0.08,,---,0.16,VWS V14.00,2013-09-11 01:07:00,
2013-09-10 18:12:00,56.7,33.2,23.45,WSW,242,0.0,0.0,41,0.08,,---,0.16,VWS V14.00,2013-09-11 01:12:00,
2013-09-10 18:17:00,56.5,33.1,23.45,WNW,292,0.0,0.0,41,0.04,,---,0.16,VWS V14.00,2013-09-11 01:17:00,
2013-09-10 18:22:00,56.3,32.9,23.45,WNW,292,0.0,0.0,41,0.04,,---,0.16,VWS V14.00,2013-09-11 01:22:00,
2013-09-10 18:27:00,56.3,32.9,23.45,WNW,292,0.0,0.0,41,0.08,,---,0.20,VWS V14.00,2013-09-11 01:27:00,
2013-09-10 18:32:00,56.1,33.4,23.45,WNW,292,0.0,0.0,42,0.08,,---,0.20,VWS V14.00,2013-09-11 01:32:00,
2013-09-10 18:37:00,55.9,33.2,23.45,WNW,292,0.0,0.0,42,0.08,,---,0.20,VWS V14.00,2013-09-11 01:37:00,
2013-09-10 18:42:00,55.9,33.2,23.45,WNW,292,0.0,0.0,42,0.08,,---,0.20,VWS V14.00,2013-09-11 01:42:00,
2013-09-10 18:47:00,55.8,33.0,23.48,WNW,292,0.0,0.0,42,0.08,,---,0.20,VWS V14.00,2013-09-11 01:47:00,
2013-09-10 18:52:00,55.8,33.0,23.48,WNW,292,0.0,0.0,42,0.08,,---,0.20,VWS V14.00,2013-09-11 01:52:00,
2013-09-10 18:57:00,55.6,33.5,23.48,WNW,292,0.0,0.0,43,0.08,,---,0.20,VWS V14.00,2013-09-11 01:57:00,
2013-09-10 19:02:00,55.6,33.5,23.48,WNW,292,0.0,0.0,43,0.08,,---,0.24,VWS V14.00,2013-09-11 02:02:00,
2013-09-10 19:07:00,55.4,33.3,23.48,WNW,292,0.0,0.0,43,0.08,,---,0.24,VWS V14.00,2013-09-11 02:07:00,
2013-09-10 19:12:00,55.4,33.3,23.48,WNW,292,0.0,0.0,43,0.12,,---,0.28,VWS V14.00,2013-09-11 02:12:00,
2013-09-10 19:18:00,55.2,33.7,23.48,WNW,292,0.0,0.0,44,0.12,,---,0.28,VWS V14.00,2013-09-11 02:18:00,
2013-09-10 19:23:00,55.2,33.7,23.48,WNW,284,0.0,0.0,44,0.12,,---,0.28,VWS V14.00,2013-09-11 02:23:00,
2013-09-10 19:28:00,55.0,33.5,23.48,WNW,283,0.0,0.0,44,0.08,,---,0.28,VWS V14.00,2013-09-11 02:28:00,
2013-09-10 19:33:00,54.9,33.4,23.48,WNW,283,0.0,0.0,44,0.08,,---,0.28,VWS V14.00,2013-09-11 02:33:00,
2013-09-10 19:38:00,54.7,33.8,23.48,WNW,283,0.0,0.0,45,0.08,,---,0.28,VWS V14.00,2013-09-11 02:38:00,
2013-09-10 19:43:00,54.7,33.8,23.48,WNW,283,0.0,0.0,45,0.08,,---,0.28,VWS V14.00,2013-09-11 02:43:00,
2013-09-10 19:48:00,54.7,33.8,23.48,WNW,283,0.0,0.0,45,0.08,,---,0.28,VWS V14.00,2013-09-11 02:48:00,
2013-09-10 19:53:00,54.5,33.6,23.48,WNW,283,0.0,0.0,45,0.08,,---,0.28,VWS V14.00,2013-09-11 02:53:00,
2013-09-10 19:58:00,54.7,33.8,23.48,WNW,283,0.0,0.0,45,0.08,,---,0.28,VWS V14.00,2013-09-11 02:58:00,
2013-09-10 20:03:00,54.5,33.6,23.48,WNW,283,0.0,0.0,45,0.04,,---,0.28,VWS V14.00,2013-09-11 03:03:00,
2013-09-10 20:08:00,54.5,33.6,23.48,WNW,283,0.0,0.0,45,0.08,,---,0.31,VWS V14.00,2013-09-11 03:08:00,
2013-09-10 20:13:00,54.5,34.2,23.48,WNW,283,0.0,0.0,46,0.04,,---,0.31,VWS V14.00,2013-09-11 03:13:00,
2013-09-10 20:18:00,54.5,34.2,23.48,WNW,283,0.0,0.0,46,0.04,,---,0.31,VWS V14.00,2013-09-11 03:18:00,
2013-09-10 20:23:00,54.5,34.2,23.48,WNW,283,0.0,0.0,46,0.04,,---,0.31,VWS V14.00,2013-09-11 03:23:00,
2013-09-10 20:28:00,54.5,34.2,23.48,WNW,283,0.0,0.0,46,0.04,,---,0.31,VWS V14.00,2013-09-11 03:28:00,
2013-09-10 20:33:00,54.3,34.0,23.48,WNW,283,0.0,0.0,46,0.04,,---,0.31,VWS V14.00,2013-09-11 03:33:00,
2013-09-10 20:38:00,54.3,34.0,23.48,WNW,296,0.0,0.0,46,0.04,,---,0.31,VWS V14.00,2013-09-11 03:38:00,
2013-09-10 20:43:00,54.3,34.0,23.48,SSW,201,0.0,0.0,46,0.04,,---,0.31,VWS V14.00,2013-09-11 03:43:00,
2013-09-10 20:48:00,54.1,33.8,23.51,SSW,211,0.0,0.0,46,0.04,,---,0.31,VWS V14.00,2013-09-11 03:48:00,
2013-09-10 20:53:00,54.1,33.8,23.51,WSW,253,0.0,0.0,46,0.04,,---,0.31,VWS V14.00,2013-09-11 03:53:00,
2013-09-10 20:58:00,54.0,33.7,23.51,West,278,5.4,7.6,46,0.04,,---,0.31,VWS V14.00,2013-09-11 03:58:00,
2013-09-10 21:01:00,54.0,33.7,23.51,WNW,301,0.0,0.0,46,0.04,,---,0.31,VWS V14.00,2013-09-11 04:01:00,
2013-09-10 21:02:00,54.0,33.7,23.51,WNW,297,2.2,2.7,46,0.04,,---,0.31,VWS V14.00,2013-09-11 04:02:00,
2013-09-10 21:03:00,54.0,33.7,23.51,WNW,297,0.0,0.0,46,0.04,,---,0.31,VWS V14.00,2013-09-11 04:03:00,
2013-09-10 21:05:00,54.0,33.7,23.51,WNW,297,0.0,0.0,46,0.04,,---,0.31,VWS V14.00,2013-09-11 04:05:00,
2013-09-10 21:10:00,54.0,33.7,23.51,WNW,296,0.0,0.0,46,0.00,,---,0.31,VWS V14.00,2013-09-11 04:10:00,
2013-09-10 21:14:00,54.0,33.7,23.51,WNW,291,0.0,0.0,46,0.00,,---,0.31,VWS V14.00,2013-09-11 04:14:00,
2013-09-10 21:19:00,53.8,33.5,23.51,West,277,0.0,0.0,46,0.00,,---,0.31,VWS V14.00,2013-09-11 04:19:00,
2013-09-10 21:24:00,53.8,34.0,23.51,West,271,0.0,0.0,47,0.00,,---,0.31,VWS V14.00,2013-09-11 04:24:00,
2013-09-10 21:29:00,53.8,34.0,23.51,SSW,198,0.0,0.0,47,0.00,,---,0.31,VWS V14.00,2013-09-11 04:29:00,
2013-09-10 21:34:00,53.8,34.0,23.51,SSW,198,0.0,0.0,47,0.00,,---,0.31,VWS V14.00,2013-09-11 04:34:00,
2013-09-10 21:39:00,53.8,34.0,23.51,SSW,198,0.0,0.0,47,0.00,,---,0.31,VWS V14.00,2013-09-11 04:39:00,
2013-09-10 21:44:00,53.8,34.0,23.51,SSW,198,0.0,0.0,47,0.00,,---,0.31,VWS V14.00,2013-09-11 04:44:00,
2013-09-10 21:49:00,53.8,34.0,23.51,SSW,198,0.0,0.0,47,0.00,,---,0.31,VWS V14.00,2013-09-11 04:49:00,
2013-09-10 21:54:00,54.0,34.2,23.51,SSW,198,0.0,0.0,47,0.00,,---,0.31,VWS V14.00,2013-09-11 04:54:00,
2013-09-10 21:59:00,54.0,34.2,23.51,SSW,198,0.0,0.0,47,0.00,,---,0.31,VWS V14.00,2013-09-11 04:59:00,
2013-09-10 22:04:00,54.0,34.2,23.51,SSW,198,0.0,0.0,47,0.00,,---,0.31,VWS V14.00,2013-09-11 05:04:00,
2013-09-10 22:10:00,54.0,34.7,23.51,SSW,198,0.0,0.0,48,0.00,,---,0.31,VWS V14.00,2013-09-11 05:10:00,
2013-09-10 22:15:00,54.0,34.7,23.51,SSW,198,0.0,0.0,48,0.00,,---,0.31,VWS V14.00,2013-09-11 05:15:00,
2013-09-10 22:20:00,54.0,34.7,23.51,SSW,198,0.0,0.0,48,0.00,,---,0.31,VWS V14.00,2013-09-11 05:20:00,
2013-09-10 22:25:00,54.0,34.7,23.51,SSW,198,0.0,0.0,48,0.00,,---,0.31,VWS V14.00,2013-09-11 05:25:00,
2013-09-10 22:30:00,54.0,34.7,23.51,SW,217,0.0,0.0,48,0.00,,---,0.31,VWS V14.00,2013-09-11 05:30:00,
2013-09-10 22:35:00,54.0,34.7,23.51,SW,217,0.0,0.0,48,0.00,,---,0.31,VWS V14.00,2013-09-11 05:35:00,
2013-09-10 22:40:00,54.0,34.7,23.51,SW,217,0.0,0.0,48,0.00,,---,0.31,VWS V14.00,2013-09-11 05:40:00,
2013-09-10 22:45:00,54.0,34.7,23.51,SW,217,0.0,0.0,48,0.00,,---,0.31,VWS V14.00,2013-09-11 05:45:00,
2013-09-10 22:50:00,54.0,34.7,23.51,SW,217,0.0,0.0,48,0.00,,---,0.31,VWS V14.00,2013-09-11 05:50:00,
2013-09-10 22:55:00,54.0,34.7,23.51,SW,217,0.0,0.0,48,0.00,,---,0.31,VWS V14.00,2013-09-11 05:55:00,
2013-09-10 23:00:00,54.0,34.7,23.51,SW,217,0.0,0.0,48,0.00,,---,0.31,VWS V14.00,2013-09-11 06:00:00,
2013-09-10 23:05:00,54.0,34.7,23.51,West,271,0.0,0.0,48,0.00,,---,0.31,VWS V14.00,2013-09-11 06:05:00,
2013-09-10 23:10:00,54.0,35.2,23.51,West,271,0.0,0.0,49,0.00,,---,0.31,VWS V14.00,2013-09-11 06:10:00,
2013-09-10 23:15:00,54.0,35.2,23.51,West,271,0.0,0.0,49,0.00,,---,0.31,VWS V14.00,2013-09-11 06:15:00,
2013-09-10 23:20:00,54.0,35.2,23.51,West,271,0.0,0.0,49,0.00,,---,0.31,VWS V14.00,2013-09-11 06:20:00,
2013-09-10 23:25:00,54.0,35.2,23.51,West,271,0.0,0.0,49,0.00,,---,0.31,VWS V14.00,2013-09-11 06:25:00,
2013-09-10 23:30:00,54.0,35.2,23.51,West,271,0.0,0.0,49,0.00,,---,0.31,VWS V14.00,2013-09-11 06:30:00,
2013-09-10 23:35:00,54.0,35.2,23.51,West,271,0.0,0.0,49,0.00,,---,0.31,VWS V14.00,2013-09-11 06:35:00,
2013-09-10 23:41:00,54.0,35.2,23.51,West,271,0.0,0.0,49,0.00,,---,0.31,VWS V14.00,2013-09-11 06:41:00,
2013-09-10 23:46:00,54.0,35.2,23.51,West,271,0.0,0.0,49,0.00,,---,0.31,VWS V14.00,2013-09-11 06:46:00,
2013-09-10 23:51:00,54.0,35.2,23.51,West,271,0.0,0.0,49,0.00,,---,0.31,VWS V14.00,2013-09-11 06:51:00,
2013-09-10 23:56:00,54.0,35.8,23.51,West,271,0.0,0.0,50,0.00,,---,0.31,VWS V14.00,2013-09-11 06:56:00,